Adair, Missouri
Current Conditions -  °F | °C
As of 9:55 PM on Friday 31 Oct 2014 (Local Time) from KIRK Reporting Station
Clear Clear  
Wind Chill: 25°   Ceiling: Unl
Heat Index: 31°   Visibility: 10mi
Dew Point: 21°   Wind: 6mph
Humidity: 67%   Direction: 350°N
Pressure: 30.45"   Gusts: NA
Location:  40.2186°N, 92.4328°W
Report Text: KIRK 010255Z AUTO 35005KT 10SM CLR M01/M06 A3045 RMK AO2 SLP324 T10061061 53006
Loading
Personal Weather Stations






























Interactive Weather Map
Tropical Storm Tracking
New forecast layout! Learn more

10-Day Weather Forecast

Advertisements
Track Severe Weather on mobile